Time;durP1;ratioP1;P1;durP2;ratioP2;P2;SDS_P1;SDS_P2;PMS_P1;PMS_P2;Temp;Humidity;BMP_temperature;BMP_pressure;BME280_temperature;BME280_humidity;BME280_pressure;Samples;Min_cycle;Max_cycle;Signal;HPM_P1;HPM_P2
2023/06/06 00:01:21;;;;;;;12.93;5.32;;;18.20;99.90;;;;;;5052506;28;20036;-74
2023/06/06 00:03:48;;;;;;;7.82;4.20;;;18.10;99.90;;;;;;5052593;28;20115;-74
2023/06/06 00:06:16;;;;;;;14.75;4.80;;;18.10;99.90;;;;;;5052768;28;20025;-74
2023/06/06 00:08:42;;;;;;;7.68;4.18;;;18.00;99.90;;;;;;5052631;28;20103;-74
2023/06/06 00:11:09;;;;;;;16.40;4.55;;;17.90;99.90;;;;;;5052144;28;20031;-75
2023/06/06 00:13:36;;;;;;;8.30;4.57;;;17.70;99.90;;;;;;5051191;28;20078;-74
2023/06/06 00:16:02;;;;;;;13.02;5.00;;;17.60;99.90;;;;;;5051168;28;20037;-74
2023/06/06 00:18:28;;;;;;;14.75;5.22;;;17.50;99.90;;;;;;5052274;28;20060;-74
2023/06/06 00:20:54;;;;;;;11.77;4.50;;;17.40;99.90;;;;;;5052283;28;20097;-74
2023/06/06 00:23:21;;;;;;;10.30;4.75;;;17.40;99.90;;;;;;5052499;28;20436;-75
2023/06/06 00:25:49;;;;;;;11.07;4.72;;;17.30;99.90;;;;;;5052189;28;20056;-74
2023/06/06 00:28:15;;;;;;;9.10;4.60;;;17.30;99.90;;;;;;5050755;28;20025;-74
2023/06/06 00:30:41;;;;;;;8.55;5.10;;;17.20;99.90;;;;;;5050682;28;20041;-74
2023/06/06 00:33:07;;;;;;;10.50;4.07;;;17.20;99.90;;;;;;5051917;28;20073;-74
2023/06/06 00:35:33;;;;;;;9.23;4.35;;;17.20;99.90;;;;;;5052133;28;20108;-75
2023/06/06 00:37:58;;;;;;;10.93;4.25;;;17.20;99.90;;;;;;5050684;28;20516;-74
2023/06/06 00:40:24;;;;;;;11.25;4.40;;;17.20;99.90;;;;;;5051806;28;20029;-75
2023/06/06 00:42:50;;;;;;;9.60;4.47;;;17.20;99.90;;;;;;5050621;28;20059;-75
2023/06/06 00:45:16;;;;;;;9.55;4.63;;;17.20;99.90;;;;;;5051428;28;20442;-75
2023/06/06 00:47:42;;;;;;;10.38;4.95;;;17.20;99.90;;;;;;5051153;28;20029;-75
2023/06/06 00:50:12;;;;;;;6.38;4.55;;;17.20;99.90;;;;;;5051845;28;20032;-75
2023/06/06 00:52:41;;;;;;;7.53;4.20;;;17.20;99.90;;;;;;5051741;28;20029;-75
2023/06/06 00:55:09;;;;;;;6.80;4.25;;;17.20;99.90;;;;;;5051233;28;20033;-74
2023/06/06 00:57:36;;;;;;;8.77;4.10;;;17.20;99.90;;;;;;5049949;28;20056;-75
2023/06/06 01:00:06;;;;;;;9.60;4.95;;;17.20;99.90;;;;;;5051608;28;20102;-74
2023/06/06 01:02:37;;;;;;;10.40;4.35;;;17.30;99.90;;;;;;5051524;28;20108;-75
2023/06/06 01:05:09;;;;;;;8.13;4.70;;;17.30;99.90;;;;;;5051481;28;20025;-75
2023/06/06 01:07:35;;;;;;;8.23;4.15;;;17.20;99.90;;;;;;5051500;28;20040;-75
2023/06/06 01:10:07;;;;;;;11.20;4.60;;;17.20;99.90;;;;;;5051248;28;20028;-76
2023/06/06 01:13:00;;;;;;;8.90;4.03;;;17.30;99.90;;;;;;5051185;28;20415;-76
2023/06/06 01:15:36;;;;;;;8.13;3.47;;;17.30;99.90;;;;;;5051107;28;20325;-76
2023/06/06 01:18:03;;;;;;;6.60;3.70;;;17.30;99.90;;;;;;5051343;28;20021;-75
2023/06/06 01:20:30;;;;;;;7.10;3.85;;;17.30;99.90;;;;;;5050926;28;20547;-76
2023/06/06 01:22:57;;;;;;;9.38;3.60;;;17.30;99.90;;;;;;5051037;28;20033;-75
2023/06/06 01:25:25;;;;;;;5.95;3.67;;;17.30;99.90;;;;;;5051043;28;20064;-75
2023/06/06 01:27:53;;;;;;;6.28;4.03;;;17.30;99.90;;;;;;5051103;28;20025;-75
2023/06/06 01:30:21;;;;;;;4.93;2.97;;;17.40;99.90;;;;;;5050771;28;20023;-75
2023/06/06 01:33:15;;;;;;;6.10;3.63;;;17.40;99.90;;;;;;5051012;28;20029;-75
2023/06/06 01:35:59;;;;;;;6.85;3.65;;;17.40;99.90;;;;;;5051005;28;20078;-76
2023/06/06 01:38:30;;;;;;;5.88;3.58;;;17.50;99.90;;;;;;5050824;28;20060;-76
2023/06/06 01:40:58;;;;;;;7.93;3.35;;;17.50;99.90;;;;;;5050801;28;20075;-75
2023/06/06 01:43:26;;;;;;;7.88;4.07;;;17.50;99.90;;;;;;5049714;28;20025;-76
2023/06/06 01:45:53;;;;;;;6.32;3.55;;;17.60;99.90;;;;;;5050791;28;20029;-76
2023/06/06 01:48:19;;;;;;;7.15;3.67;;;17.60;99.90;;;;;;5050745;28;20032;-74
2023/06/06 01:50:46;;;;;;;6.80;3.75;;;17.60;99.90;;;;;;5050550;28;20031;-76
2023/06/06 01:53:12;;;;;;;10.80;4.20;;;17.60;99.90;;;;;;5050642;28;20053;-77
2023/06/06 01:55:38;;;;;;;8.38;3.50;;;17.60;99.90;;;;;;5050160;28;20064;-74
2023/06/06 01:58:05;;;;;;;8.13;3.75;;;17.60;99.90;;;;;;5050355;28;20445;-76
2023/06/06 02:00:31;;;;;;;7.30;3.22;;;17.60;99.90;;;;;;5050432;28;20029;-76
2023/06/06 02:02:56;;;;;;;7.25;3.65;;;17.60;99.90;;;;;;5050255;28;20606;-76
2023/06/06 02:05:22;;;;;;;5.50;3.13;;;17.60;99.90;;;;;;5048843;28;20068;-76
2023/06/06 02:07:49;;;;;;;5.25;3.20;;;17.60;99.90;;;;;;5050190;28;20075;-76
2023/06/06 02:10:15;;;;;;;6.30;3.35;;;17.60;99.90;;;;;;5050474;28;20037;-75
2023/06/06 02:12:41;;;;;;;5.43;3.95;;;17.60;99.90;;;;;;5050598;28;20049;-76
2023/06/06 02:15:09;;;;;;;7.32;3.50;;;17.60;99.90;;;;;;5048882;28;20076;-76
2023/06/06 02:17:35;;;;;;;4.72;3.17;;;17.60;99.90;;;;;;5050175;28;20551;-75
2023/06/06 02:20:04;;;;;;;6.32;3.50;;;17.50;99.90;;;;;;5050002;28;20032;-75
2023/06/06 02:22:30;;;;;;;5.75;3.67;;;17.50;99.90;;;;;;5048606;28;20440;-75
2023/06/06 02:24:55;;;;;;;10.45;4.15;;;17.50;99.90;;;;;;5048652;28;20021;-76
2023/06/06 02:27:21;;;;;;;8.10;4.28;;;17.50;99.90;;;;;;5049828;28;20136;-76
2023/06/06 02:29:47;;;;;;;15.23;4.20;;;17.50;99.90;;;;;;5049872;28;20541;-75
2023/06/06 02:32:13;;;;;;;5.63;3.78;;;17.60;99.90;;;;;;5049991;28;20036;-76
2023/06/06 02:34:38;;;;;;;7.47;4.43;;;17.60;99.90;;;;;;5049855;28;20021;-75
2023/06/06 02:37:07;;;;;;;6.57;4.05;;;17.60;99.90;;;;;;5049966;28;20196;-76
2023/06/06 02:39:36;;;;;;;7.82;4.47;;;17.60;99.90;;;;;;5048439;28;20033;-75
2023/06/06 02:42:03;;;;;;;7.60;4.50;;;17.60;99.90;;;;;;5049628;28;20075;-75
2023/06/06 02:44:30;;;;;;;7.78;5.15;;;17.70;99.90;;;;;;5049641;28;20023;-76
2023/06/06 02:46:57;;;;;;;9.15;5.18;;;17.70;99.90;;;;;;5049769;28;20025;-75
2023/06/06 02:49:23;;;;;;;6.43;4.93;;;17.70;99.90;;;;;;5048312;28;20032;-76
2023/06/06 02:51:48;;;;;;;15.93;5.60;;;17.70;99.90;;;;;;5049614;28;20029;-76
2023/06/06 02:54:14;;;;;;;8.05;5.28;;;17.70;99.90;;;;;;5048184;28;20398;-76
2023/06/06 02:56:40;;;;;;;11.68;6.10;;;17.70;99.90;;;;;;5049452;28;20104;-76
2023/06/06 02:59:07;;;;;;;7.15;5.25;;;17.70;99.90;;;;;;5049294;28;20037;-76
2023/06/06 03:01:36;;;;;;;8.50;5.70;;;17.70;99.90;;;;;;5047617;28;20025;-75
2023/06/06 03:04:03;;;;;;;9.68;5.85;;;17.60;99.90;;;;;;5049472;28;20036;-76
2023/06/06 03:06:29;;;;;;;7.50;5.57;;;17.70;99.90;;;;;;5047985;28;20060;-76
2023/06/06 03:08:57;;;;;;;8.27;6.25;;;17.60;99.90;;;;;;5049184;28;20446;-75
2023/06/06 03:11:25;;;;;;;14.90;5.97;;;17.60;99.90;;;;;;5047806;28;20036;-76
2023/06/06 03:13:51;;;;;;;16.20;6.30;;;17.60;99.90;;;;;;5049290;28;20064;-76
2023/06/06 03:16:16;;;;;;;12.35;6.30;;;17.70;99.90;;;;;;5049489;28;20057;-76
2023/06/06 03:18:46;;;;;;;9.07;6.15;;;17.70;99.90;;;;;;5049165;28;20501;-76
2023/06/06 03:21:12;;;;;;;14.27;6.07;;;17.70;99.90;;;;;;5047693;28;20021;-76
2023/06/06 03:23:38;;;;;;;12.40;6.32;;;17.70;99.90;;;;;;5049187;28;20061;-76
2023/06/06 03:26:04;;;;;;;10.70;6.13;;;17.70;99.90;;;;;;5049302;28;20078;-76
2023/06/06 03:28:31;;;;;;;11.82;6.15;;;17.70;99.90;;;;;;5049100;28;20534;-76
2023/06/06 03:30:57;;;;;;;8.40;5.72;;;17.80;99.90;;;;;;5049115;28;20078;-77
2023/06/06 03:33:23;;;;;;;11.70;7.82;;;17.80;99.90;;;;;;5047666;28;20033;-76
2023/06/06 03:35:50;;;;;;;12.90;6.00;;;17.80;99.90;;;;;;5047714;28;20025;-76
2023/06/06 03:38:15;;;;;;;7.88;6.13;;;17.80;99.90;;;;;;5048971;28;20037;-75
2023/06/06 03:40:41;;;;;;;11.32;7.18;;;17.70;99.90;;;;;;5049042;28;20025;-76
2023/06/06 03:43:07;;;;;;;8.05;6.40;;;17.80;99.90;;;;;;5048816;28;20029;-75
2023/06/06 03:45:33;;;;;;;9.65;6.82;;;17.80;99.90;;;;;;5049090;28;20018;-77
2023/06/06 03:47:58;;;;;;;8.05;5.90;;;17.80;99.90;;;;;;5048844;28;20048;-75
2023/06/06 03:50:24;;;;;;;9.00;6.38;;;17.80;99.90;;;;;;5048893;28;20022;-76
2023/06/06 03:52:50;;;;;;;10.25;6.18;;;17.80;99.90;;;;;;5048951;28;20490;-75
2023/06/06 03:55:16;;;;;;;10.02;5.43;;;17.80;99.90;;;;;;5048735;28;20104;-75
2023/06/06 03:57:42;;;;;;;11.20;5.55;;;17.80;99.90;;;;;;5048687;28;20084;-75
2023/06/06 04:00:13;;;;;;;7.93;5.95;;;17.80;99.90;;;;;;5048851;28;20087;-76
2023/06/06 04:02:39;;;;;;;8.57;6.13;;;17.90;99.90;;;;;;5048891;28;20087;-76
2023/06/06 04:05:06;;;;;;;16.30;5.88;;;17.90;99.90;;;;;;5048870;28;20029;-76
2023/06/06 04:07:32;;;;;;;9.00;6.70;;;17.90;99.90;;;;;;5048857;28;20044;-76
2023/06/06 04:09:58;;;;;;;11.13;6.13;;;17.90;99.90;;;;;;5048751;28;20028;-76
2023/06/06 04:12:24;;;;;;;8.93;6.05;;;18.00;99.90;;;;;;5049075;28;20406;-76
2023/06/06 04:14:50;;;;;;;9.00;6.03;;;17.90;99.90;;;;;;5052668;28;20174;-76
2023/06/06 04:17:17;;;;;;;11.38;5.97;;;18.00;99.90;;;;;;5052400;28;20025;-76
2023/06/06 04:19:43;;;;;;;7.20;5.88;;;18.00;99.90;;;;;;5052294;28;20033;-76
2023/06/06 04:22:09;;;;;;;10.40;6.45;;;18.10;99.90;;;;;;5052399;28;20399;-75
2023/06/06 04:24:35;;;;;;;9.02;6.30;;;18.10;99.90;;;;;;5052423;28;20032;-77
2023/06/06 04:27:03;;;;;;;9.23;6.55;;;18.10;99.90;;;;;;5052218;28;20025;-76
2023/06/06 04:29:32;;;;;;;9.68;6.18;;;18.10;99.90;;;;;;5050874;28;20111;-76
2023/06/06 04:31:59;;;;;;;14.45;7.90;;;18.10;99.90;;;;;;5052008;28;20382;-75
2023/06/06 04:34:29;;;;;;;13.95;6.20;;;18.20;99.90;;;;;;5052036;28;20079;-76
2023/06/06 04:37:01;;;;;;;7.00;5.40;;;18.20;99.90;;;;;;5052118;28;20397;-75
2023/06/06 04:39:28;;;;;;;10.05;5.93;;;18.20;99.90;;;;;;5051772;28;20036;-76
2023/06/06 04:41:56;;;;;;;7.60;5.05;;;18.20;99.90;;;;;;5051830;28;20027;-76
2023/06/06 04:44:23;;;;;;;9.30;5.22;;;18.20;99.90;;;;;;5051886;28;20551;-75
2023/06/06 04:46:52;;;;;;;12.85;5.90;;;18.30;99.90;;;;;;5051927;28;20021;-75
2023/06/06 04:49:19;;;;;;;15.82;6.70;;;18.30;99.90;;;;;;5051680;28;20489;-76
2023/06/06 04:51:44;;;;;;;12.02;4.85;;;18.20;99.90;;;;;;5051823;28;20021;-76
2023/06/06 04:54:10;;;;;;;9.00;5.50;;;18.20;99.90;;;;;;5051637;28;20031;-75
2023/06/06 04:56:38;;;;;;;10.68;5.95;;;18.10;99.90;;;;;;5050194;28;20045;-76
2023/06/06 04:59:07;;;;;;;9.75;6.15;;;18.10;99.90;;;;;;5051485;28;20044;-75
2023/06/06 05:01:34;;;;;;;8.43;5.60;;;18.00;99.90;;;;;;5051413;28;20024;-76
2023/06/06 05:04:00;;;;;;;9.27;5.28;;;17.90;99.90;;;;;;5050332;28;20040;-76
2023/06/06 05:06:27;;;;;;;9.10;5.10;;;17.80;99.90;;;;;;5051428;28;20029;-75
2023/06/06 05:08:54;;;;;;;9.85;4.93;;;17.80;99.90;;;;;;5051397;28;20103;-76
2023/06/06 05:11:19;;;;;;;10.80;5.75;;;17.80;99.90;;;;;;5051227;28;20025;-76
2023/06/06 05:13:45;;;;;;;13.25;5.43;;;17.80;99.90;;;;;;5051479;28;20029;-75
2023/06/06 05:16:11;;;;;;;9.50;6.10;;;17.70;99.90;;;;;;5051415;28;20029;-76
2023/06/06 05:18:37;;;;;;;6.18;4.30;;;17.70;99.90;;;;;;5051214;28;20040;-74
2023/06/06 05:21:04;;;;;;;6.80;4.45;;;17.70;99.90;;;;;;5051126;28;20485;-74
2023/06/06 05:23:30;;;;;;;8.85;5.20;;;17.70;99.90;;;;;;5050559;28;20017;-73
2023/06/06 05:25:58;;;;;;;9.02;4.75;;;17.70;99.90;;;;;;5050132;28;20489;-74
2023/06/06 05:28:29;;;;;;;15.20;5.93;;;17.60;99.90;;;;;;5051116;28;20048;-74
2023/06/06 05:30:59;;;;;;;9.55;5.30;;;17.60;99.90;;;;;;5049700;28;20452;-74
2023/06/06 05:33:25;;;;;;;16.35;5.45;;;17.60;99.90;;;;;;5051066;28;20082;-74
2023/06/06 05:35:53;;;;;;;8.77;4.55;;;17.60;99.90;;;;;;5051380;28;20045;-74
2023/06/06 05:38:19;;;;;;;4.10;3.47;;;17.60;99.90;;;;;;5051092;28;20021;-74
2023/06/06 05:40:45;;;;;;;6.43;3.38;;;17.70;99.90;;;;;;5051239;28;20033;-74
2023/06/06 05:43:13;;;;;;;4.88;4.07;;;17.70;99.90;;;;;;5050576;28;20074;-74
2023/06/06 05:45:38;;;;;;;4.18;2.90;;;17.80;99.90;;;;;;5050597;28;20130;-74
2023/06/06 05:48:04;;;;;;;4.63;2.92;;;17.70;99.90;;;;;;5050838;28;20585;-75
2023/06/06 05:50:31;;;;;;;3.17;2.45;;;17.90;99.90;;;;;;5050543;28;20043;-75
2023/06/06 05:52:56;;;;;;;6.95;3.58;;;17.90;99.90;;;;;;5050624;28;20027;-74
2023/06/06 05:55:33;;;;;;;4.38;3.05;;;17.90;99.90;;;;;;5051043;28;20033;-74
2023/06/06 05:58:00;;;;;;;8.85;3.50;;;17.80;99.90;;;;;;5050261;28;20057;-74
2023/06/06 06:00:27;;;;;;;6.00;4.30;;;17.90;99.90;;;;;;5050352;28;20040;-74
2023/06/06 06:02:55;;;;;;;9.13;5.57;;;17.90;99.90;;;;;;5050493;28;20043;-74
2023/06/06 06:05:28;;;;;;;6.10;5.05;;;17.90;99.90;;;;;;5050239;28;20079;-74
2023/06/06 06:08:00;;;;;;;13.90;5.40;;;17.90;99.90;;;;;;5050243;28;20069;-74
2023/06/06 06:10:37;;;;;;;9.18;6.38;;;18.00;99.90;;;;;;5050267;28;20048;-74
2023/06/06 06:13:04;;;;;;;6.55;5.90;;;18.10;99.90;;;;;;5050249;28;20100;-74
2023/06/06 06:15:30;;;;;;;10.35;6.05;;;18.10;99.90;;;;;;5050041;28;20489;-74
2023/06/06 06:17:56;;;;;;;10.55;6.07;;;18.10;99.90;;;;;;5050184;28;20071;-74
2023/06/06 06:20:22;;;;;;;7.97;5.53;;;18.10;99.90;;;;;;5049874;28;20037;-74
2023/06/06 06:22:48;;;;;;;10.10;5.53;;;18.20;99.90;;;;;;5050088;28;20470;-74
2023/06/06 06:25:14;;;;;;;6.38;4.55;;;18.20;99.90;;;;;;5050024;28;20090;-74
2023/06/06 06:27:41;;;;;;;7.70;5.18;;;18.30;99.90;;;;;;5050255;28;20032;-74
2023/06/06 06:30:09;;;;;;;8.52;5.18;;;18.30;99.90;;;;;;5048734;28;20025;-74
2023/06/06 06:32:36;;;;;;;11.55;5.68;;;18.40;99.90;;;;;;5049765;28;20083;-74
2023/06/06 06:35:03;;;;;;;9.25;5.70;;;18.30;99.90;;;;;;5049418;28;20445;-73
2023/06/06 06:37:30;;;;;;;12.13;6.35;;;18.30;99.90;;;;;;5049164;28;20116;-74
2023/06/06 06:39:59;;;;;;;7.25;5.43;;;18.30;99.90;;;;;;5049599;28;20048;-74
2023/06/06 06:42:26;;;;;;;8.10;6.18;;;18.20;99.90;;;;;;5049517;28;20033;-75
2023/06/06 06:44:52;;;;;;;11.77;6.55;;;18.20;99.90;;;;;;5049623;28;20079;-73
2023/06/06 06:47:18;;;;;;;16.52;7.15;;;18.40;99.90;;;;;;5049447;28;20029;-74
2023/06/06 06:49:44;;;;;;;9.95;6.47;;;18.50;99.90;;;;;;5049512;28;20055;-74
2023/06/06 06:52:15;;;;;;;7.88;6.25;;;18.50;99.90;;;;;;5049490;28;20044;-74
2023/06/06 06:54:46;;;;;;;12.25;8.13;;;18.50;99.90;;;;;;5048021;28;20032;-74
2023/06/06 06:57:12;;;;;;;12.82;7.93;;;18.50;99.90;;;;;;5047727;28;20060;-75
2023/06/06 06:59:38;;;;;;;10.85;7.75;;;18.50;99.90;;;;;;5049606;28;20413;-75
2023/06/06 07:02:05;;;;;;;11.85;7.18;;;18.40;99.90;;;;;;5049437;28;20032;-75
2023/06/06 07:04:30;;;;;;;9.05;7.30;;;18.50;99.90;;;;;;5049183;28;20029;-73
2023/06/06 07:06:56;;;;;;;13.15;8.10;;;18.40;99.90;;;;;;5049350;28;20029;-74
2023/06/06 07:09:22;;;;;;;8.23;6.35;;;18.40;99.90;;;;;;5049369;28;20110;-75
2023/06/06 07:11:48;;;;;;;7.60;6.03;;;18.50;99.90;;;;;;5049246;28;20037;-73
2023/06/06 07:14:13;;;;;;;11.48;6.00;;;18.50;99.90;;;;;;5048064;28;20036;-74
2023/06/06 07:16:39;;;;;;;6.07;5.25;;;18.60;99.90;;;;;;5049348;28;20079;-74
2023/06/06 07:19:05;;;;;;;8.15;6.10;;;18.70;99.90;;;;;;5049179;28;20041;-75
2023/06/06 07:21:30;;;;;;;8.27;6.22;;;18.70;99.90;;;;;;5049097;28;20499;-74
2023/06/06 07:23:56;;;;;;;9.07;6.22;;;18.70;99.90;;;;;;5049129;28;20033;-74
2023/06/06 07:26:22;;;;;;;7.35;6.20;;;18.60;99.90;;;;;;5047851;28;20028;-74
2023/06/06 07:28:48;;;;;;;9.35;6.50;;;18.60;99.90;;;;;;5047718;28;20033;-74
2023/06/06 07:31:15;;;;;;;10.02;7.25;;;18.60;99.90;;;;;;5048928;28;20114;-74
2023/06/06 07:33:40;;;;;;;11.00;6.75;;;18.60;99.90;;;;;;5049072;28;20104;-73
2023/06/06 07:36:07;;;;;;;13.00;7.15;;;18.50;99.90;;;;;;5049020;28;20033;-74
2023/06/06 07:38:33;;;;;;;7.60;6.13;;;18.50;99.90;;;;;;5049000;28;20033;-74
2023/06/06 07:40:59;;;;;;;10.73;8.00;;;18.60;99.90;;;;;;5048883;28;20080;-74
2023/06/06 07:43:25;;;;;;;9.45;6.80;;;18.70;99.90;;;;;;5048916;28;20414;-74
2023/06/06 07:45:51;;;;;;;8.57;5.85;;;18.80;99.90;;;;;;5048886;28;20043;-74
2023/06/06 07:48:17;;;;;;;11.80;5.95;;;18.80;99.90;;;;;;5051886;28;20055;-73
2023/06/06 07:50:42;;;;;;;5.85;5.22;;;18.80;99.90;;;;;;5052911;28;20055;-74
2023/06/06 07:53:10;;;;;;;11.55;7.18;;;18.80;99.90;;;;;;5051442;28;20112;-74
2023/06/06 07:55:36;;;;;;;13.85;7.30;;;18.70;99.90;;;;;;5052720;28;20410;-75
2023/06/06 07:58:02;;;;;;;10.10;6.90;;;18.60;99.90;;;;;;5052738;28;20029;-74
2023/06/06 08:00:28;;;;;;;13.70;6.60;;;18.50;99.90;;;;;;5051635;28;20083;-74
2023/06/06 08:02:54;;;;;;;11.68;7.30;;;18.40;99.90;;;;;;5052824;28;20553;-74
2023/06/06 08:05:19;;;;;;;13.82;7.60;;;18.30;99.90;;;;;;5052493;28;20401;-74
2023/06/06 08:07:45;;;;;;;12.75;7.30;;;18.30;99.90;;;;;;5051097;28;20025;-74
2023/06/06 08:10:11;;;;;;;10.02;7.15;;;18.20;99.90;;;;;;5052609;28;20025;-73
2023/06/06 08:12:37;;;;;;;8.45;6.90;;;18.10;99.90;;;;;;5052465;28;20025;-73
2023/06/06 08:15:09;;;;;;;9.40;6.90;;;17.90;99.90;;;;;;5052480;28;20599;-72
2023/06/06 08:17:34;;;;;;;12.75;7.78;;;17.90;99.90;;;;;;5052424;28;20485;-73
2023/06/06 08:20:00;;;;;;;8.90;6.22;;;17.90;99.90;;;;;;5052199;28;20029;-74
2023/06/06 08:22:27;;;;;;;6.07;4.00;;;17.90;99.90;;;;;;5052349;28;20396;-74
2023/06/06 08:24:53;;;;;;;6.13;2.65;;;17.80;99.90;;;;;;5052223;28;20029;-73
2023/06/06 08:27:19;;;;;;;5.07;2.67;;;17.80;99.90;;;;;;5052077;28;20025;-74
2023/06/06 08:29:44;;;;;;;4.93;4.43;;;17.70;99.90;;;;;;5052134;28;20032;-74
2023/06/06 08:32:12;;;;;;;8.02;4.82;;;17.80;99.90;;;;;;5052369;28;20063;-74
2023/06/06 08:34:38;;;;;;;5.32;4.45;;;17.70;99.90;;;;;;5052204;28;20087;-74
2023/06/06 08:37:04;;;;;;;9.65;6.65;;;17.70;99.90;;;;;;5052084;28;20064;-74
2023/06/06 08:39:29;;;;;;;12.35;7.50;;;17.70;99.90;;;;;;5051799;28;20036;-73
2023/06/06 08:41:56;;;;;;;12.45;7.82;;;17.60;99.90;;;;;;5052102;28;20032;-73
2023/06/06 08:44:23;;;;;;;12.75;8.52;;;17.60;99.90;;;;;;5050885;28;20040;-74
2023/06/06 08:46:57;;;;;;;11.18;8.20;;;17.60;99.90;;;;;;5052055;28;20021;-74
2023/06/06 08:49:26;;;;;;;13.40;8.73;;;17.50;99.90;;;;;;5051835;28;20031;-74
2023/06/06 08:51:52;;;;;;;9.50;8.50;;;17.60;99.90;;;;;;5052089;28;20486;-74
2023/06/06 08:54:19;;;;;;;11.43;8.50;;;17.60;99.90;;;;;;5052015;28;20054;-74
2023/06/06 08:56:45;;;;;;;9.10;7.93;;;17.60;99.90;;;;;;5050686;28;20053;-73
2023/06/06 08:59:11;;;;;;;9.57;7.80;;;17.50;99.90;;;;;;5049195;28;20040;-73
2023/06/06 09:01:40;;;;;;;9.45;7.53;;;17.60;99.90;;;;;;5051641;28;20032;-74
2023/06/06 09:04:07;;;;;;;8.30;6.55;;;17.60;99.90;;;;;;5051698;28;20489;-74
2023/06/06 09:06:44;;;;;;;5.90;5.35;;;17.50;99.90;;;;;;5051561;28;20070;-74
2023/06/06 09:09:11;;;;;;;4.82;3.38;;;17.50;99.90;;;;;;5051214;28;20049;-74
2023/06/06 09:11:37;;;;;;;3.25;2.28;;;17.50;99.90;;;;;;5051433;28;20025;-74
2023/06/06 09:14:06;;;;;;;3.25;2.90;;;17.60;99.90;;;;;;5051557;28;20163;-74
2023/06/06 09:16:32;;;;;;;8.27;6.10;;;17.70;99.90;;;;;;5051357;28;20029;-74
2023/06/06 09:19:01;;;;;;;7.38;6.68;;;17.70;99.90;;;;;;5049814;28;20029;-74
2023/06/06 09:21:33;;;;;;;8.52;7.40;;;17.80;99.90;;;;;;5049900;28;20493;-74
2023/06/06 09:23:59;;;;;;;8.40;7.13;;;17.80;99.90;;;;;;5051076;28;20032;-73
2023/06/06 09:26:26;;;;;;;8.38;7.38;;;17.80;99.90;;;;;;5051064;28;20107;-75
2023/06/06 09:28:51;;;;;;;8.32;7.38;;;17.80;99.90;;;;;;5049896;28;20041;-74
2023/06/06 09:31:26;;;;;;;11.45;6.68;;;17.80;99.90;;;;;;5050864;28;20041;-74
2023/06/06 09:33:53;;;;;;;6.72;5.85;;;17.90;99.90;;;;;;5051068;28;20048;-73
2023/06/06 09:36:23;;;;;;;7.90;7.20;;;17.90;99.90;;;;;;5049644;28;20032;-73
2023/06/06 09:38:54;;;;;;;9.55;8.52;;;17.90;99.90;;;;;;5050854;28;20029;-74
2023/06/06 09:41:21;;;;;;;10.13;9.13;;;18.00;99.90;;;;;;5049304;28;20048;-75
2023/06/06 09:43:47;;;;;;;14.70;10.15;;;18.10;99.90;;;;;;5050787;28;20477;-75
2023/06/06 09:46:17;;;;;;;12.10;10.90;;;18.10;99.90;;;;;;5049503;28;20100;-74
2023/06/06 09:48:53;;;;;;;11.85;10.65;;;18.40;99.90;;;;;;5049469;28;20053;-74
2023/06/06 09:51:19;;;;;;;11.18;9.77;;;18.60;99.90;;;;;;5049285;28;20029;-75
2023/06/06 09:53:51;;;;;;;10.02;7.70;;;19.00;99.90;;;;;;5049311;28;20120;-74
2023/06/06 09:56:22;;;;;;;10.55;8.07;;;19.30;99.90;;;;;;5049005;28;20041;-74
2023/06/06 09:58:55;;;;;;;15.70;11.45;;;19.50;99.90;;;;;;5049125;28;20041;-74
2023/06/06 10:01:28;;;;;;;11.80;10.57;;;19.60;99.90;;;;;;5050358;28;20485;-75
2023/06/06 10:03:57;;;;;;;16.10;13.80;;;19.70;99.90;;;;;;5050068;28;20025;-74
2023/06/06 10:06:26;;;;;;;13.48;11.60;;;19.70;99.90;;;;;;5050050;28;20037;-74
2023/06/06 10:08:56;;;;;;;16.02;11.25;;;19.70;99.90;;;;;;5050315;28;20032;-73
2023/06/06 10:11:22;;;;;;;16.25;11.55;;;19.70;99.90;;;;;;5048643;28;20033;-75
2023/06/06 10:13:51;;;;;;;13.95;12.23;;;19.70;99.90;;;;;;5048861;28;20413;-74
2023/06/06 10:16:18;;;;;;;13.48;12.07;;;19.80;99.90;;;;;;5048615;28;20128;-74
2023/06/06 10:18:46;;;;;;;17.23;11.18;;;19.80;99.90;;;;;;5049979;28;20036;-75
2023/06/06 10:21:15;;;;;;;12.77;11.02;;;19.80;99.90;;;;;;5049923;28;20039;-75
2023/06/06 10:23:42;;;;;;;14.73;10.55;;;19.80;99.90;;;;;;5050233;28;20389;-74
2023/06/06 10:26:16;;;;;;;14.50;9.30;;;20.10;99.90;;;;;;5049981;28;20047;-75
2023/06/06 10:28:49;;;;;;;9.90;7.32;;;20.40;99.90;;;;;;5050135;28;20481;-75
2023/06/06 10:31:38;;;;;;;10.35;6.22;;;20.60;99.90;;;;;;5049716;28;20025;-75
2023/06/06 10:34:10;;;;;;;9.15;6.35;;;20.80;99.90;;;;;;5049554;28;20033;-74
2023/06/06 10:36:40;;;;;;;9.73;5.15;;;21.00;99.90;;;;;;5049695;28;20020;-74
2023/06/06 10:39:23;;;;;;;7.32;5.10;;;21.00;99.90;;;;;;5049580;28;20041;-74
2023/06/06 10:41:59;;;;;;;5.88;4.30;;;21.10;99.90;;;;;;5048401;28;20502;-75
2023/06/06 10:44:38;;;;;;;5.03;3.78;;;21.00;99.90;;;;;;5049539;28;20027;-74
2023/06/06 10:47:23;;;;;;;10.90;7.00;;;21.00;99.90;;;;;;5049638;28;20107;-74
2023/06/06 10:50:12;;;;;;;5.03;2.90;;;21.20;99.90;;;;;;5049424;28;20028;-74
2023/06/06 10:52:45;;;;;;;8.88;4.75;;;21.20;99.90;;;;;;5042737;28;20041;-75
2023/06/06 10:55:23;;;;;;;13.88;3.30;;;21.10;99.90;;;;;;5047897;28;20487;-74
2023/06/06 10:58:03;;;;;;;4.90;3.15;;;20.90;99.90;;;;;;5049215;28;20577;-75
2023/06/06 11:00:55;;;;;;;8.95;2.88;;;20.70;99.90;;;;;;5048129;28;20048;-75
2023/06/06 11:03:32;;;;;;;4.95;2.28;;;20.60;99.90;;;;;;5049155;28;20112;-74
2023/06/06 11:06:01;;;;;;;5.35;2.33;;;20.50;99.90;;;;;;5049203;28;20383;-75
2023/06/06 11:08:43;;;;;;;6.22;2.22;;;20.40;99.90;;;;;;5048029;28;20028;-75
2023/06/06 11:11:29;;;;;;;5.22;2.47;;;20.50;99.90;;;;;;5047786;28;20110;-75
2023/06/06 11:14:13;;;;;;;5.57;2.60;;;20.50;99.90;;;;;;5049320;28;20032;-75
2023/06/06 11:16:39;;;;;;;5.07;2.28;;;20.60;99.90;;;;;;5049411;28;20033;-75
2023/06/06 11:19:09;;;;;;;4.55;2.95;;;20.60;99.90;;;;;;5047863;28;20036;-75
2023/06/06 11:21:36;;;;;;;6.45;2.75;;;20.50;99.90;;;;;;5048918;28;20371;-75
2023/06/06 11:24:03;;;;;;;7.57;2.90;;;20.40;99.90;;;;;;5047903;28;20116;-75
2023/06/06 11:26:28;;;;;;;13.65;3.63;;;20.30;99.90;;;;;;5047494;28;20393;-76
2023/06/06 11:28:58;;;;;;;10.38;3.05;;;20.20;99.90;;;;;;5048958;28;20486;-75
2023/06/06 11:31:24;;;;;;;8.15;3.53;;;20.10;99.90;;;;;;5049091;28;20350;-76
2023/06/06 11:33:50;;;;;;;5.05;3.10;;;19.80;99.90;;;;;;5047684;28;20036;-75
2023/06/06 11:36:17;;;;;;;10.32;3.05;;;19.60;99.90;;;;;;5049018;28;20052;-75
2023/06/06 11:38:43;;;;;;;6.60;3.55;;;19.50;99.90;;;;;;5047564;28;20075;-75
2023/06/06 11:41:09;;;;;;;10.07;3.55;;;19.40;99.90;;;;;;5048783;28;20037;-75
2023/06/06 11:43:35;;;;;;;9.48;3.60;;;19.30;99.90;;;;;;5047655;28;20029;-75
2023/06/06 11:46:06;;;;;;;4.78;3.15;;;19.20;99.90;;;;;;5049049;28;20052;-75
2023/06/06 11:48:32;;;;;;;5.47;3.10;;;19.10;99.90;;;;;;5049113;28;20033;-76
2023/06/06 11:50:57;;;;;;;6.28;2.70;;;19.10;99.90;;;;;;5048775;28;20033;-76
2023/06/06 11:53:35;;;;;;;8.02;2.95;;;19.20;99.90;;;;;;5047514;28;20039;-76
2023/06/06 11:56:01;;;;;;;4.22;2.78;;;19.20;99.90;;;;;;5048702;28;20052;-75
2023/06/06 11:58:29;;;;;;;5.53;2.80;;;19.20;99.90;;;;;;5047591;28;20025;-75
2023/06/06 12:00:56;;;;;;;3.83;2.80;;;19.20;99.90;;;;;;5047477;28;20116;-74
2023/06/06 12:03:25;;;;;;;6.57;3.38;;;19.20;99.90;;;;;;5048767;28;20104;-76
2023/06/06 12:06:01;;;;;;;5.65;3.42;;;19.30;99.90;;;;;;5047581;28;20557;-75
2023/06/06 12:08:27;;;;;;;4.35;2.63;;;19.30;99.90;;;;;;5048873;28;20021;-75
2023/06/06 12:10:53;;;;;;;4.50;3.22;;;19.30;99.90;;;;;;5049024;28;20104;-75
2023/06/06 12:13:32;;;;;;;6.00;3.28;;;19.30;99.90;;;;;;5049013;28;20103;-76
2023/06/06 12:15:58;;;;;;;6.20;2.70;;;19.30;99.90;;;;;;5048656;28;20052;-76
2023/06/06 12:18:24;;;;;;;5.68;3.47;;;19.20;99.90;;;;;;5048444;28;20098;-75
2023/06/06 12:20:50;;;;;;;8.05;2.97;;;19.30;99.90;;;;;;5048420;28;20403;-76
2023/06/06 12:23:29;;;;;;;9.70;3.22;;;19.20;99.90;;;;;;5047180;28;20033;-75
2023/06/06 12:25:59;;;;;;;6.82;2.78;;;19.20;99.90;;;;;;5048613;28;20074;-75
2023/06/06 12:28:25;;;;;;;8.60;3.50;;;19.30;99.90;;;;;;5048629;28;20020;-76
2023/06/06 12:30:51;;;;;;;10.63;3.58;;;19.30;99.90;;;;;;5048553;28;20814;-75
2023/06/06 12:33:21;;;;;;;6.78;3.58;;;19.40;99.90;;;;;;5048517;28;20028;-75
2023/06/06 12:35:48;;;;;;;4.35;2.95;;;19.40;99.90;;;;;;5051966;28;20047;-75
2023/06/06 12:38:21;;;;;;;13.85;4.18;;;19.50;99.90;;;;;;5051978;28;20025;-75
2023/06/06 12:40:56;;;;;;;9.18;3.80;;;19.40;99.90;;;;;;5051999;28;20112;-76
2023/06/06 12:43:22;;;;;;;4.05;3.40;;;19.40;99.90;;;;;;5052135;28;20499;-75
2023/06/06 12:45:48;;;;;;;6.97;3.88;;;19.30;99.90;;;;;;5051943;28;20115;-76
2023/06/06 12:48:15;;;;;;;5.75;3.22;;;19.40;99.90;;;;;;5052026;28;20055;-75